Time;durP1;ratioP1;P1;durP2;ratioP2;P2;SDS_P1;SDS_P2;PMS_P1;PMS_P2;Temp;Humidity;BMP_temperature;BMP_pressure;BME280_temperature;BME280_humidity;BME280_pressure;Samples;Min_cycle;Max_cycle;Signal;HPM_P1;HPM_P2
2022/09/10 00:02:02;;;;;;;4.35;2.40;;;16.70;87.40;;;;;;6214686;23;20028;-65
2022/09/10 00:04:27;;;;;;;4.45;2.17;;;16.70;87.40;;;;;;6214881;23;20415;-66
2022/09/10 00:06:54;;;;;;;4.90;2.10;;;16.70;87.30;;;;;;6212882;23;20337;-66
2022/09/10 00:09:19;;;;;;;4.10;2.63;;;16.80;87.20;;;;;;6213070;23;20058;-66
2022/09/10 00:11:45;;;;;;;5.63;2.78;;;16.80;87.10;;;;;;6217062;23;20233;-65
2022/09/10 00:14:17;;;;;;;6.38;2.80;;;16.80;87.00;;;;;;6214753;23;20047;-66
2022/09/10 00:16:43;;;;;;;6.47;2.85;;;16.80;87.00;;;;;;6214898;23;20007;-65
2022/09/10 00:19:09;;;;;;;4.65;2.47;;;16.80;87.00;;;;;;6215056;23;20000;-66
2022/09/10 00:21:34;;;;;;;4.43;2.20;;;16.80;86.90;;;;;;6215079;23;20095;-65
2022/09/10 00:24:01;;;;;;;4.43;2.00;;;16.80;86.80;;;;;;6215305;23;19996;-66
2022/09/10 00:26:37;;;;;;;5.03;2.50;;;16.80;86.70;;;;;;6213903;23;20001;-65
2022/09/10 00:29:04;;;;;;;5.85;2.85;;;16.80;86.70;;;;;;6214631;23;20008;-65
2022/09/10 00:31:33;;;;;;;5.57;2.70;;;16.80;86.70;;;;;;6214394;23;20075;-65
2022/09/10 00:34:00;;;;;;;4.90;2.80;;;16.90;86.70;;;;;;6215178;23;20338;-65
2022/09/10 00:36:29;;;;;;;4.93;3.25;;;16.90;86.70;;;;;;6212830;23;20011;-65
2022/09/10 00:38:58;;;;;;;8.43;3.92;;;16.80;86.70;;;;;;6213579;23;20012;-65
2022/09/10 00:41:25;;;;;;;9.10;4.10;;;16.80;86.70;;;;;;6214035;23;20008;-66
2022/09/10 00:43:58;;;;;;;10.23;4.22;;;16.80;86.80;;;;;;6213794;23;20001;-66
2022/09/10 00:46:32;;;;;;;8.77;4.68;;;16.80;86.80;;;;;;6214419;23;20007;-66
2022/09/10 00:49:08;;;;;;;8.68;4.88;;;16.80;86.80;;;;;;6212492;23;19996;-66
2022/09/10 00:51:35;;;;;;;5.72;3.60;;;16.70;86.80;;;;;;6214214;23;20422;-66
2022/09/10 00:54:02;;;;;;;7.65;4.47;;;16.80;86.80;;;;;;6214424;23;20437;-66
2022/09/10 00:56:28;;;;;;;6.90;4.55;;;16.80;86.80;;;;;;6213248;23;20000;-66
2022/09/10 00:58:55;;;;;;;8.10;4.15;;;16.80;86.80;;;;;;6213448;23;20076;-66
2022/09/10 01:01:21;;;;;;;6.18;3.90;;;16.70;86.70;;;;;;6213755;23;20107;-66
2022/09/10 01:03:48;;;;;;;6.97;4.22;;;16.80;86.80;;;;;;6213216;23;20005;-66
2022/09/10 01:06:14;;;;;;;6.47;3.55;;;16.80;86.80;;;;;;6214524;23;20000;-66
2022/09/10 01:08:40;;;;;;;7.65;3.78;;;16.80;86.70;;;;;;6213642;23;20001;-65
2022/09/10 01:11:10;;;;;;;6.25;4.22;;;16.80;86.70;;;;;;6213290;23;20436;-65
2022/09/10 01:13:49;;;;;;;7.07;4.63;;;16.80;86.70;;;;;;6212285;23;20299;-65
2022/09/10 01:16:18;;;;;;;5.95;4.30;;;16.80;86.80;;;;;;6214958;23;20004;-66
2022/09/10 01:18:54;;;;;;;15.00;8.10;;;16.80;86.70;;;;;;6215204;23;20338;-66
2022/09/10 01:21:23;;;;;;;7.97;5.75;;;16.80;86.70;;;;;;6214203;23;20602;-66
2022/09/10 01:24:27;;;;;;;8.43;5.68;;;16.80;86.80;;;;;;6214767;23;20520;-66
2022/09/10 01:27:25;;;;;;;9.55;7.35;;;16.80;86.80;;;;;;6214239;23;20442;-66
2022/09/10 01:30:14;;;;;;;11.95;9.05;;;16.70;86.80;;;;;;6214760;23;20080;-66
2022/09/10 01:32:59;;;;;;;12.02;7.63;;;16.80;87.00;;;;;;6214398;23;20673;-66
2022/09/10 01:35:48;;;;;;;12.68;8.70;;;16.70;87.10;;;;;;6213720;23;20004;-65
2022/09/10 01:38:25;;;;;;;14.00;10.75;;;16.70;87.20;;;;;;6212004;23;20452;-66
2022/09/10 01:40:53;;;;;;;12.38;8.13;;;16.70;87.60;;;;;;6210723;23;20083;-65
2022/09/10 01:43:18;;;;;;;10.43;7.57;;;16.60;87.70;;;;;;6212671;23;20009;-65
2022/09/10 01:45:50;;;;;;;6.55;5.03;;;16.70;87.70;;;;;;6212809;23;20677;-66
2022/09/10 01:48:45;;;;;;;9.77;5.95;;;16.70;87.70;;;;;;6213232;23;20084;-65
2022/09/10 01:51:11;;;;;;;10.43;7.10;;;16.70;87.50;;;;;;6210414;23;20338;-65
2022/09/10 01:53:51;;;;;;;12.00;8.02;;;16.80;87.40;;;;;;6212306;23;20015;-65
2022/09/10 01:56:34;;;;;;;13.50;9.05;;;16.80;87.40;;;;;;6212085;23;20083;-65
2022/09/10 01:59:08;;;;;;;10.77;7.63;;;16.80;87.40;;;;;;6212394;23;20346;-65
2022/09/10 02:01:49;;;;;;;9.70;6.55;;;16.80;87.50;;;;;;6212700;23;20007;-65
2022/09/10 02:04:16;;;;;;;10.55;7.43;;;16.80;87.40;;;;;;6212665;23;20007;-65
2022/09/10 02:06:46;;;;;;;14.20;9.48;;;16.80;87.30;;;;;;6214489;23;20080;-65
2022/09/10 02:09:14;;;;;;;11.93;8.43;;;16.80;87.40;;;;;;6213433;23;20004;-65
2022/09/10 02:11:52;;;;;;;10.90;7.47;;;16.80;87.50;;;;;;6214495;23;20410;-65
2022/09/10 02:14:20;;;;;;;9.65;7.32;;;16.80;87.40;;;;;;6213528;23;20011;-65
2022/09/10 02:16:58;;;;;;;10.02;6.70;;;16.80;88.10;;;;;;6213361;23;20015;-65
2022/09/10 02:19:25;;;;;;;13.18;8.02;;;16.80;87.40;;;;;;6213918;23;20005;-65
2022/09/10 02:21:55;;;;;;;10.68;7.28;;;16.90;87.40;;;;;;6213980;23;20001;-65
2022/09/10 02:24:21;;;;;;;11.57;8.98;;;16.90;87.40;;;;;;6213872;23;20001;-65
2022/09/10 02:26:48;;;;;;;10.25;7.85;;;16.80;87.50;;;;;;6213597;23;20009;-65
2022/09/10 02:29:15;;;;;;;9.98;7.90;;;16.80;87.60;;;;;;6216023;23;20513;-65
2022/09/10 02:31:42;;;;;;;8.02;6.60;;;16.80;87.50;;;;;;6216446;23;20055;-65
2022/09/10 02:34:09;;;;;;;14.85;9.82;;;16.90;87.60;;;;;;6215218;23;20303;-65
2022/09/10 02:36:34;;;;;;;10.90;7.32;;;16.90;87.50;;;;;;6214340;23;20004;-65
2022/09/10 02:39:02;;;;;;;13.45;10.10;;;16.80;87.60;;;;;;6212875;23;20001;-65
2022/09/10 02:41:31;;;;;;;12.95;8.65;;;16.80;87.60;;;;;;6212591;23;20039;-65
2022/09/10 02:43:56;;;;;;;15.95;11.20;;;16.80;87.70;;;;;;6212099;23;20507;-66
2022/09/10 02:46:22;;;;;;;13.02;9.32;;;16.70;87.90;;;;;;6211598;23;20000;-66
2022/09/10 02:48:47;;;;;;;12.07;8.18;;;16.70;88.10;;;;;;6212051;23;20374;-65
2022/09/10 02:51:13;;;;;;;13.35;7.88;;;16.70;88.10;;;;;;6211723;23;20001;-66
2022/09/10 02:53:39;;;;;;;8.57;7.00;;;16.80;88.10;;;;;;6214324;23;20037;-66
2022/09/10 02:56:06;;;;;;;9.10;6.90;;;16.80;88.00;;;;;;6215118;23;20005;-65
2022/09/10 02:58:32;;;;;;;8.13;6.50;;;16.90;87.90;;;;;;6213464;23;20007;-65
2022/09/10 03:01:09;;;;;;;7.60;5.85;;;16.90;87.80;;;;;;6215320;23;20004;-66
2022/09/10 03:03:36;;;;;;;7.60;5.95;;;16.90;87.70;;;;;;6213715;23;20020;-65
2022/09/10 03:06:02;;;;;;;8.57;6.10;;;16.90;87.60;;;;;;6214329;23;20001;-66
2022/09/10 03:08:28;;;;;;;9.23;6.05;;;17.00;87.60;;;;;;6215101;23;20402;-66
2022/09/10 03:10:55;;;;;;;6.47;4.82;;;17.00;87.50;;;;;;6213706;23;20059;-66
2022/09/10 03:13:20;;;;;;;11.15;7.15;;;17.00;87.30;;;;;;6212917;23;20004;-66
2022/09/10 03:15:46;;;;;;;13.45;10.70;;;17.00;87.30;;;;;;6213332;23;20078;-66
2022/09/10 03:18:11;;;;;;;10.98;8.98;;;17.00;87.40;;;;;;6213589;23;20460;-66
2022/09/10 03:20:37;;;;;;;9.55;8.35;;;16.90;87.50;;;;;;6211957;23;20495;-66
2022/09/10 03:23:02;;;;;;;12.38;8.98;;;16.90;87.70;;;;;;6211164;23;20009;-66
2022/09/10 03:25:28;;;;;;;10.60;8.65;;;16.90;87.90;;;;;;6213044;23;20450;-65
2022/09/10 03:27:54;;;;;;;10.85;9.05;;;16.80;88.00;;;;;;6212213;23;20004;-65
2022/09/10 03:30:20;;;;;;;11.00;7.88;;;16.80;88.20;;;;;;6214398;23;20005;-66
2022/09/10 03:32:46;;;;;;;15.05;11.70;;;16.80;88.40;;;;;;6213262;23;20032;-66
2022/09/10 03:35:12;;;;;;;11.68;9.98;;;16.80;88.40;;;;;;6213085;23;20008;-65
2022/09/10 03:37:39;;;;;;;10.43;7.63;;;16.80;88.50;;;;;;6212594;23;20005;-65
2022/09/10 03:40:06;;;;;;;8.88;6.40;;;16.80;88.50;;;;;;6214207;23;20000;-66
2022/09/10 03:42:32;;;;;;;10.98;8.05;;;16.80;88.40;;;;;;6212617;23;20059;-65
2022/09/10 03:44:57;;;;;;;10.77;8.25;;;16.90;88.40;;;;;;6213547;23;19997;-67
2022/09/10 03:47:23;;;;;;;13.80;10.50;;;16.90;88.40;;;;;;6215370;23;20457;-66
2022/09/10 03:49:49;;;;;;;13.07;9.73;;;16.90;88.40;;;;;;6216385;23;20001;-66
2022/09/10 03:52:15;;;;;;;8.65;7.20;;;16.90;88.40;;;;;;6215748;23;20023;-66
2022/09/10 03:54:41;;;;;;;10.15;7.95;;;16.90;88.50;;;;;;6215360;23;20130;-64
2022/09/10 03:57:07;;;;;;;11.35;8.20;;;16.90;88.40;;;;;;6215210;23;20032;-65
2022/09/10 03:59:33;;;;;;;11.52;9.30;;;16.90;88.40;;;;;;6215064;23;20023;-65
2022/09/10 04:01:59;;;;;;;10.38;7.20;;;16.90;88.40;;;;;;6217066;23;20004;-65
2022/09/10 04:04:25;;;;;;;11.68;9.05;;;16.90;88.50;;;;;;6220799;23;20001;-66
2022/09/10 04:06:53;;;;;;;9.38;7.75;;;16.90;88.40;;;;;;6215919;23;20075;-67
2022/09/10 04:09:19;;;;;;;10.52;9.00;;;16.90;88.60;;;;;;6214709;23;20383;-65
2022/09/10 04:11:45;;;;;;;10.45;7.47;;;16.90;89.30;;;;;;6213447;23;20000;-66
2022/09/10 04:14:10;;;;;;;11.07;8.43;;;16.90;88.60;;;;;;6212125;23;20001;-66
2022/09/10 04:16:36;;;;;;;10.55;7.63;;;16.90;88.60;;;;;;6213284;23;20334;-66
2022/09/10 04:19:01;;;;;;;8.05;6.15;;;17.00;88.60;;;;;;6213953;23;20008;-66
2022/09/10 04:21:27;;;;;;;9.32;7.85;;;17.00;88.60;;;;;;6211413;23;20083;-66
2022/09/10 04:23:54;;;;;;;9.88;6.93;;;17.00;88.50;;;;;;6213311;23;20091;-66
2022/09/10 04:26:21;;;;;;;12.65;9.07;;;17.00;88.50;;;;;;6213247;23;20071;-66
2022/09/10 04:28:47;;;;;;;10.40;8.13;;;17.00;88.40;;;;;;6213847;23;20036;-65
2022/09/10 04:31:12;;;;;;;9.48;7.35;;;17.00;88.40;;;;;;6212135;23;20011;-66
2022/09/10 04:33:38;;;;;;;8.13;6.38;;;17.00;88.50;;;;;;6214722;23;20001;-65
2022/09/10 04:36:04;;;;;;;9.65;6.93;;;17.00;88.60;;;;;;6213880;23;20004;-66
2022/09/10 04:38:31;;;;;;;10.50;8.65;;;17.00;88.60;;;;;;6216188;23;20127;-66
2022/09/10 04:40:59;;;;;;;5.57;4.70;;;17.00;88.70;;;;;;6213861;23;20008;-66
2022/09/10 04:43:25;;;;;;;9.38;7.43;;;17.00;88.70;;;;;;6216654;23;20389;-64
2022/09/10 04:45:54;;;;;;;10.30;7.65;;;17.00;88.80;;;;;;6214155;23;19997;-65
2022/09/10 04:48:23;;;;;;;7.43;6.20;;;17.00;89.00;;;;;;6213891;23;20001;-65
2022/09/10 04:50:49;;;;;;;11.65;9.13;;;17.00;88.90;;;;;;6212744;23;20000;-64
2022/09/10 04:53:15;;;;;;;9.90;7.57;;;17.00;88.80;;;;;;6214069;23;20426;-66
2022/09/10 04:55:43;;;;;;;10.65;8.10;;;17.00;88.90;;;;;;6213278;23;20001;-66
2022/09/10 04:58:09;;;;;;;8.43;7.03;;;17.00;89.00;;;;;;6213642;23;20001;-66
2022/09/10 05:00:35;;;;;;;9.90;8.25;;;16.90;89.10;;;;;;6213763;23;20084;-65
2022/09/10 05:03:00;;;;;;;11.95;7.50;;;16.90;89.10;;;;;;6213875;23;19997;-66
2022/09/10 05:05:27;;;;;;;9.32;6.47;;;17.00;89.20;;;;;;6217738;23;20361;-66
2022/09/10 05:07:52;;;;;;;9.45;6.82;;;17.00;89.10;;;;;;6213193;23;20005;-65
2022/09/10 05:10:20;;;;;;;8.25;6.38;;;17.00;89.10;;;;;;6212873;23;20507;-65
2022/09/10 05:12:46;;;;;;;9.45;7.97;;;17.00;89.00;;;;;;6210825;23;20008;-65
2022/09/10 05:15:12;;;;;;;8.82;7.65;;;17.00;89.00;;;;;;6212386;23;20048;-65
2022/09/10 05:17:38;;;;;;;7.82;6.90;;;17.00;89.10;;;;;;6212349;23;20001;-66
2022/09/10 05:20:06;;;;;;;7.38;5.88;;;17.00;89.10;;;;;;6212453;23;20455;-66
2022/09/10 05:22:33;;;;;;;6.13;4.95;;;17.00;89.10;;;;;;6212907;23;19997;-66
2022/09/10 05:24:59;;;;;;;7.38;5.35;;;17.10;89.00;;;;;;6212376;23;20453;-66
2022/09/10 05:27:24;;;;;;;7.07;5.75;;;17.10;88.90;;;;;;6212615;23;20035;-66
2022/09/10 05:29:50;;;;;;;8.48;7.00;;;17.20;88.80;;;;;;6212308;23;20005;-67
2022/09/10 05:32:17;;;;;;;6.63;5.93;;;17.20;88.80;;;;;;6212502;23;20353;-65
2022/09/10 05:34:47;;;;;;;8.32;5.72;;;17.10;88.90;;;;;;6212765;23;20054;-65
2022/09/10 05:37:15;;;;;;;5.68;4.57;;;17.20;88.80;;;;;;6211988;23;20001;-66
2022/09/10 05:39:41;;;;;;;5.68;4.82;;;17.20;88.70;;;;;;6212601;23;20000;-66
2022/09/10 05:42:07;;;;;;;9.23;6.55;;;17.20;88.60;;;;;;6212434;23;20022;-66
2022/09/10 05:44:33;;;;;;;9.35;7.13;;;17.20;88.60;;;;;;6212956;23;20545;-66
2022/09/10 05:46:59;;;;;;;8.27;6.63;;;17.10;88.90;;;;;;6214086;23;19997;-65
2022/09/10 05:49:24;;;;;;;6.22;5.03;;;17.10;89.00;;;;;;6212699;23;20001;-65
2022/09/10 05:51:50;;;;;;;8.30;6.63;;;17.10;89.00;;;;;;6212414;23;20005;-65
2022/09/10 05:54:16;;;;;;;6.28;5.47;;;17.10;90.00;;;;;;6212034;23;20004;-65
2022/09/10 05:56:41;;;;;;;6.50;5.07;;;17.20;89.40;;;;;;6212259;23;20075;-66
2022/09/10 05:59:08;;;;;;;7.43;6.63;;;17.20;89.20;;;;;;6212165;23;20005;-66
2022/09/10 06:01:34;;;;;;;6.32;5.70;;;17.20;89.20;;;;;;6212293;23;20063;-67
2022/09/10 06:03:59;;;;;;;10.07;7.45;;;17.20;89.10;;;;;;6212548;23;20005;-68
2022/09/10 06:06:27;;;;;;;8.00;5.90;;;17.20;89.10;;;;;;6212386;23;20078;-68
2022/09/10 06:08:55;;;;;;;6.53;5.55;;;17.20;89.10;;;;;;6212567;23;20004;-68
2022/09/10 06:11:21;;;;;;;7.88;6.47;;;17.20;89.10;;;;;;6212992;23;20008;-68
2022/09/10 06:13:47;;;;;;;7.35;6.10;;;17.20;89.40;;;;;;6212328;23;20008;-67
2022/09/10 06:16:13;;;;;;;7.35;6.55;;;17.20;89.50;;;;;;6213280;23;20001;-67
2022/09/10 06:18:39;;;;;;;6.93;4.60;;;17.10;89.70;;;;;;6211297;23;20096;-67
2022/09/10 06:21:10;;;;;;;7.10;5.68;;;17.20;89.70;;;;;;6212899;23;20031;-66
2022/09/10 06:23:36;;;;;;;6.70;5.00;;;17.10;89.60;;;;;;6212910;23;20004;-66
2022/09/10 06:26:07;;;;;;;8.38;5.80;;;17.10;89.80;;;;;;6212672;23;20468;-65
2022/09/10 06:28:33;;;;;;;6.38;5.70;;;17.00;90.00;;;;;;6212936;23;20005;-66
2022/09/10 06:30:59;;;;;;;4.82;4.32;;;16.90;90.10;;;;;;6212992;23;20067;-66
2022/09/10 06:33:25;;;;;;;5.07;4.57;;;17.00;90.20;;;;;;6212479;23;20092;-67
2022/09/10 06:35:52;;;;;;;5.45;4.30;;;17.00;90.20;;;;;;6211903;23;20024;-67
2022/09/10 06:38:18;;;;;;;4.40;4.00;;;17.00;90.10;;;;;;6210806;23;20008;-68
2022/09/10 06:40:54;;;;;;;3.58;3.20;;;16.90;90.10;;;;;;6211054;23;20008;-67
2022/09/10 06:43:24;;;;;;;5.20;4.00;;;17.00;90.10;;;;;;6214513;23;19997;-68
2022/09/10 06:45:51;;;;;;;4.13;3.67;;;16.90;90.20;;;;;;6210613;23;20007;-67
2022/09/10 06:48:21;;;;;;;5.75;4.97;;;16.90;90.20;;;;;;6211885;23;20001;-68
2022/09/10 06:50:54;;;;;;;6.35;5.10;;;16.90;90.30;;;;;;6212438;23;20012;-67
2022/09/10 06:53:21;;;;;;;4.97;4.47;;;16.90;90.30;;;;;;6212279;23;20007;-67
2022/09/10 06:55:49;;;;;;;4.55;3.50;;;16.90;90.30;;;;;;6212761;23;20118;-67
2022/09/10 06:58:16;;;;;;;3.83;3.30;;;16.80;90.40;;;;;;6212531;23;20008;-68
2022/09/10 07:00:44;;;;;;;3.25;2.78;;;16.80;90.40;;;;;;6211960;23;20007;-66
2022/09/10 07:03:09;;;;;;;2.58;2.38;;;16.90;90.30;;;;;;6212435;23;20004;-67
2022/09/10 07:05:35;;;;;;;2.80;2.20;;;17.00;90.20;;;;;;6210460;23;20000;-66
2022/09/10 07:08:00;;;;;;;4.55;2.10;;;17.00;90.10;;;;;;6212259;23;20024;-67
2022/09/10 07:10:28;;;;;;;3.13;1.80;;;17.10;90.00;;;;;;6210930;23;20034;-66
2022/09/10 07:12:54;;;;;;;3.22;2.28;;;17.10;90.00;;;;;;6211578;23;20005;-66
2022/09/10 07:15:19;;;;;;;3.60;2.83;;;17.00;90.10;;;;;;6209323;23;20032;-67
2022/09/10 07:17:45;;;;;;;3.97;3.60;;;17.00;90.20;;;;;;6213295;23;20441;-67
2022/09/10 07:20:11;;;;;;;7.32;5.72;;;17.00;90.20;;;;;;6211110;23;20131;-67
2022/09/10 07:22:38;;;;;;;10.50;7.07;;;17.00;90.20;;;;;;6210426;23;20333;-67
2022/09/10 07:25:05;;;;;;;9.43;7.82;;;17.00;90.20;;;;;;6211243;23;20001;-66
2022/09/10 07:27:32;;;;;;;8.07;7.28;;;17.00;90.40;;;;;;6210244;23;20589;-67
2022/09/10 07:29:57;;;;;;;11.35;10.05;;;17.00;90.40;;;;;;6210472;23;20001;-66
2022/09/10 07:32:26;;;;;;;13.05;9.55;;;17.00;90.40;;;;;;6210326;23;20012;-66
2022/09/10 07:34:54;;;;;;;11.05;6.13;;;17.00;90.80;;;;;;6210746;23;20108;-67
2022/09/10 07:37:21;;;;;;;8.23;6.45;;;17.00;90.50;;;;;;6210564;23;20040;-67
2022/09/10 07:39:47;;;;;;;6.70;4.85;;;17.10;90.40;;;;;;6209777;23;20008;-66
2022/09/10 07:42:13;;;;;;;6.70;5.53;;;17.10;90.40;;;;;;6210101;23;20001;-66
2022/09/10 07:44:38;;;;;;;5.70;4.50;;;17.20;90.30;;;;;;6210730;23;19997;-66
2022/09/10 07:47:04;;;;;;;3.15;2.67;;;17.20;90.20;;;;;;6210097;23;20055;-67
2022/09/10 07:49:30;;;;;;;2.60;2.40;;;17.30;90.10;;;;;;6210570;23;20595;-66
2022/09/10 07:51:56;;;;;;;2.45;2.03;;;17.20;90.00;;;;;;6210838;23;20011;-66
2022/09/10 07:54:23;;;;;;;1.70;1.60;;;17.30;90.00;;;;;;6210416;23;20001;-66
2022/09/10 07:56:49;;;;;;;1.80;1.50;;;17.30;89.90;;;;;;6209909;23;20143;-66
2022/09/10 07:59:15;;;;;;;2.53;1.40;;;17.30;89.80;;;;;;6209291;23;20044;-66
2022/09/10 08:01:41;;;;;;;2.50;1.65;;;17.20;89.70;;;;;;6209807;23;20342;-66
2022/09/10 08:04:06;;;;;;;2.33;1.85;;;17.30;90.00;;;;;;6208148;23;20083;-66
2022/09/10 08:06:32;;;;;;;2.08;1.70;;;17.30;89.80;;;;;;6209621;23;20075;-66
2022/09/10 08:09:01;;;;;;;2.60;1.67;;;17.30;89.70;;;;;;6209703;23;20067;-66
2022/09/10 08:11:33;;;;;;;2.10;1.90;;;17.40;89.60;;;;;;6209412;23;20401;-66
2022/09/10 08:13:59;;;;;;;6.60;2.17;;;17.40;89.40;;;;;;6210024;23;20000;-66
2022/09/10 08:16:26;;;;;;;2.75;1.60;;;17.40;89.30;;;;;;6210244;23;20028;-66
2022/09/10 08:18:56;;;;;;;1.63;1.50;;;17.50;89.20;;;;;;6209403;23;20001;-67
2022/09/10 08:21:23;;;;;;;3.13;2.08;;;17.50;89.10;;;;;;6212085;23;20001;-66
2022/09/10 08:23:52;;;;;;;2.83;2.30;;;17.60;89.00;;;;;;6211415;23;20028;-66
2022/09/10 08:26:22;;;;;;;12.82;3.03;;;17.60;88.80;;;;;;6211306;23;20047;-66
2022/09/10 08:28:48;;;;;;;39.88;7.28;;;17.60;88.70;;;;;;6213782;23;20004;-67
2022/09/10 08:31:15;;;;;;;11.38;4.47;;;17.60;88.60;;;;;;6213002;23;20005;-65
2022/09/10 08:33:46;;;;;;;9.32;3.90;;;17.60;88.70;;;;;;6213637;23;20422;-65
2022/09/10 08:36:13;;;;;;;3.53;2.88;;;17.60;88.80;;;;;;6213172;23;20005;-66
2022/09/10 08:38:40;;;;;;;5.15;3.38;;;17.60;89.00;;;;;;6213852;23;20004;-66
2022/09/10 08:41:39;;;;;;;5.32;3.85;;;17.60;88.90;;;;;;6213695;23;20007;-66
2022/09/10 08:44:11;;;;;;;5.88;3.90;;;17.60;88.90;;;;;;6213170;23;20000;-66
2022/09/10 08:46:59;;;;;;;4.40;3.13;;;17.60;88.80;;;;;;6213359;23;20008;-66
2022/09/10 08:49:30;;;;;;;4.22;2.95;;;17.70;88.80;;;;;;6213085;23;20139;-66
2022/09/10 08:51:59;;;;;;;3.35;3.05;;;17.70;88.60;;;;;;6211246;23;20008;-65
2022/09/10 08:54:32;;;;;;;5.25;3.80;;;17.70;88.50;;;;;;6212241;23;20012;-66
2022/09/10 08:56:59;;;;;;;4.53;3.50;;;17.70;88.40;;;;;;6210964;23;20488;-67
2022/09/10 08:59:33;;;;;;;4.55;4.05;;;17.70;88.40;;;;;;6207768;23;20004;-67
2022/09/10 09:02:22;;;;;;;6.95;4.80;;;17.70;88.30;;;;;;6208315;23;20055;-67
2022/09/10 09:04:59;;;;;;;4.43;3.63;;;17.60;88.60;;;;;;6208592;23;20088;-67
2022/09/10 09:07:33;;;;;;;4.80;3.53;;;17.60;88.80;;;;;;6210335;23;20091;-67
2022/09/10 09:09:59;;;;;;;4.88;3.78;;;17.70;88.70;;;;;;6209398;23;20005;-67
2022/09/10 09:12:37;;;;;;;4.47;3.65;;;17.80;88.50;;;;;;6210699;23;20406;-66
2022/09/10 09:15:17;;;;;;;4.15;3.75;;;17.90;88.20;;;;;;6210636;23;20060;-66
2022/09/10 09:18:23;;;;;;;3.85;3.45;;;17.90;88.00;;;;;;6209946;23;20004;-66
2022/09/10 09:20:55;;;;;;;4.00;3.40;;;18.00;88.00;;;;;;6206914;23;20079;-66
2022/09/10 09:23:28;;;;;;;;;;;18.00;87.90;;;;;;6210624;23;20381;-67
2022/09/10 09:26:13;;;;;;;3.35;3.05;;;18.10;87.70;;;;;;6210713;23;19904;-64
2022/09/10 09:29:01;;;;;;;3.80;3.45;;;18.20;88.00;;;;;;6181170;23;20005;-65
2022/09/10 09:31:30;;;;;;;4.32;3.35;;;18.20;87.50;;;;;;6180609;23;20043;-66
2022/09/10 09:34:05;;;;;;;4.05;3.58;;;18.20;87.30;;;;;;6179979;23;20008;-66
2022/09/10 09:36:42;;;;;;;3.58;3.28;;;18.20;87.20;;;;;;6179273;23;20008;-67
2022/09/10 09:39:19;;;;;;;3.67;3.22;;;18.30;87.00;;;;;;6178043;23;20005;-67
2022/09/10 09:42:03;;;;;;;4.90;3.58;;;18.30;87.20;;;;;;6152472;23;20097;-67
2022/09/10 09:45:01;;;;;;;5.28;4.53;;;18.20;87.20;;;;;;6152947;23;20004;-66
2022/09/10 09:47:27;;;;;;;4.60;3.58;;;18.10;87.30;;;;;;6179353;23;19998;-66
2022/09/10 09:49:53;;;;;;;3.85;2.95;;;18.20;87.70;;;;;;6178971;23;20055;-66
2022/09/10 09:52:22;;;;;;;3.97;3.25;;;18.20;87.60;;;;;;6180332;23;20574;-66
2022/09/10 09:55:05;;;;;;;3.38;2.97;;;18.30;87.40;;;;;;6179535;23;20060;-65
2022/09/10 09:57:31;;;;;;;4.07;3.60;;;18.30;87.30;;;;;;6180768;23;20000;-65
2022/09/10 10:00:14;;;;;;;3.25;2.92;;;18.40;87.10;;;;;;6179245;23;20016;-66
2022/09/10 10:02:40;;;;;;;3.53;3.22;;;18.40;87.70;;;;;;6180200;23;20001;-66
2022/09/10 10:05:12;;;;;;;3.40;3.10;;;18.30;86.90;;;;;;6178737;23;20085;-66
2022/09/10 10:07:38;;;;;;;3.30;3.00;;;18.30;87.00;;;;;;6179301;23;20001;-66
2022/09/10 10:10:06;;;;;;;3.97;2.88;;;18.30;87.10;;;;;;6177599;23;20100;-66
2022/09/10 10:12:32;;;;;;;2.20;1.90;;;18.30;87.30;;;;;;6180968;23;20394;-67
2022/09/10 10:14:59;;;;;;;2.30;2.10;;;18.30;87.20;;;;;;6180696;23;20096;-66
2022/09/10 10:17:33;;;;;;;3.30;1.90;;;18.40;87.10;;;;;;6156842;23;20354;-66
2022/09/10 10:20:12;;;;;;;2.30;2.08;;;18.50;87.00;;;;;;6182462;23;20088;-66
2022/09/10 10:22:47;;;;;;;2.10;2.00;;;18.50;86.80;;;;;;6181369;23;20083;-66
2022/09/10 10:25:40;;;;;;;2.60;2.40;;;18.60;86.70;;;;;;6182318;23;20461;-65
2022/09/10 10:28:14;;;;;;;2.58;2.17;;;18.60;86.50;;;;;;6205640;23;20092;-66
2022/09/10 10:30:40;;;;;;;2.97;2.20;;;18.60;86.40;;;;;;6212593;23;20485;-67
2022/09/10 10:33:17;;;;;;;2.55;2.10;;;18.70;86.30;;;;;;6212083;23;20004;-66
2022/09/10 10:35:52;;;;;;;2.08;1.92;;;18.80;86.10;;;;;;6209631;23;20084;-66
2022/09/10 10:38:33;;;;;;;2.40;1.95;;;18.90;85.80;;;;;;6209486;23;20426;-67
2022/09/10 10:41:24;;;;;;;3.40;2.78;;;19.00;85.60;;;;;;6208838;23;20430;-66
2022/09/10 10:44:22;;;;;;;3.00;2.50;;;19.20;85.20;;;;;;6210280;23;20004;-67
2022/09/10 10:47:03;;;;;;;3.15;2.85;;;19.30;84.90;;;;;;6208618;23;20004;-67
2022/09/10 10:50:02;;;;;;;4.00;3.60;;;19.60;84.60;;;;;;6211124;23;20008;-67
2022/09/10 10:52:32;;;;;;;4.45;3.47;;;19.80;84.20;;;;;;6210748;23;20562;-66
2022/09/10 10:55:15;;;;;;;5.00;3.85;;;20.10;83.70;;;;;;6212232;23;20005;-65
2022/09/10 10:57:52;;;;;;;5.97;4.82;;;20.30;83.30;;;;;;6211793;23;20303;-66
2022/09/10 11:00:19;;;;;;;4.28;3.88;;;20.50;82.90;;;;;;6212388;23;20032;-66
2022/09/10 11:03:17;;;;;;;5.25;3.97;;;20.50;82.40;;;;;;6213482;23;20035;-66
2022/09/10 11:05:51;;;;;;;3.95;3.60;;;20.50;82.40;;;;;;6162470;23;20012;-66
2022/09/10 11:08:44;;;;;;;3.33;3.03;;;20.30;82.30;;;;;;6212674;23;20470;-66
2022/09/10 11:11:15;;;;;;;3.17;2.30;;;20.30;82.70;;;;;;6211896;23;20366;-65
2022/09/10 11:13:56;;;;;;;2.90;2.30;;;20.20;82.70;;;;;;6209012;23;20055;-66
2022/09/10 11:16:33;;;;;;;2.97;2.67;;;20.10;82.70;;;;;;6210842;23;20333;-66
2022/09/10 11:19:14;;;;;;;3.63;3.33;;;20.00;82.90;;;;;;6211326;23;20089;-67
2022/09/10 11:21:48;;;;;;;3.60;3.30;;;20.00;83.10;;;;;;6210564;23;20058;-64
2022/09/10 11:24:20;;;;;;;2.88;2.67;;;20.10;83.10;;;;;;6210789;23;19997;-65
2022/09/10 11:26:53;;;;;;;;;;;20.20;83.10;;;;;;6211277;23;20032;-65
2022/09/10 11:29:42;;;;;;;3.00;2.47;;;20.20;82.80;;;;;;6211196;23;20071;-66
2022/09/10 11:32:31;;;;;;;2.30;2.10;;;20.20;82.60;;;;;;6211438;23;20080;-65
2022/09/10 11:35:21;;;;;;;2.53;2.33;;;20.30;82.40;;;;;;6209578;23;20075;-64
2022/09/10 11:38:03;;;;;;;2.03;1.92;;;20.40;82.30;;;;;;6211352;23;20008;-65
2022/09/10 11:40:38;;;;;;;1.73;1.60;;;20.40;82.30;;;;;;6211341;23;20457;-66
2022/09/10 11:43:13;;;;;;;1.80;1.70;;;20.30;82.30;;;;;;6211631;23;19997;-67
2022/09/10 11:45:52;;;;;;;1.88;1.63;;;20.40;82.10;;;;;;6211883;23;20001;-66
2022/09/10 11:48:21;;;;;;;1.60;1.50;;;20.40;82.00;;;;;;6212350;23;20001;-66
2022/09/10 11:51:00;;;;;;;1.60;1.50;;;20.50;82.00;;;;;;6208748;23;20015;-67
2022/09/10 11:53:27;;;;;;;1.70;1.60;;;20.70;81.70;;;;;;6208327;23;20055;-66
2022/09/10 11:56:00;;;;;;;1.40;1.30;;;20.70;81.40;;;;;;6211507;23;20057;-67
2022/09/10 11:58:33;;;;;;;1.65;1.55;;;20.70;81.30;;;;;;6210272;23;20093;-67
2022/09/10 12:01:12;;;;;;;1.92;1.83;;;20.60;81.50;;;;;;6210155;23;20005;-67
2022/09/10 12:03:53;;;;;;;1.70;1.60;;;20.50;81.70;;;;;;6209824;23;20001;-67
2022/09/10 12:06:29;;;;;;;2.30;1.50;;;20.40;81.80;;;;;;6210804;23;20024;-66
2022/09/10 12:09:07;;;;;;;1.85;1.75;;;20.30;81.90;;;;;;6211660;23;20004;-66
2022/09/10 12:12:07;;;;;;;1.75;1.52;;;20.20;82.00;;;;;;6211112;23;20004;-67
2022/09/10 12:14:38;;;;;;;1.50;1.40;;;20.10;82.20;;;;;;6212674;23;20009;-67
2022/09/10 12:17:08;;;;;;;1.70;1.60;;;20.10;82.20;;;;;;6210242;23;20005;-67
2022/09/10 12:19:45;;;;;;;1.70;1.60;;;20.20;82.10;;;;;;6211872;23;20005;-67
2022/09/10 12:22:35;;;;;;;1.75;1.65;;;20.30;81.80;;;;;;6210642;23;20008;-67
2022/09/10 12:25:06;;;;;;;1.50;1.40;;;20.40;81.40;;;;;;6211547;23;20030;-67
2022/09/10 12:27:47;;;;;;;2.03;1.33;;;20.60;81.20;;;;;;6211967;23;20595;-67
2022/09/10 12:30:36;;;;;;;1.35;1.25;;;20.70;80.70;;;;;;6210592;23;20397;-65
2022/09/10 12:33:23;;;;;;;1.60;1.50;;;20.70;80.40;;;;;;6196249;23;20005;-66
2022/09/10 12:35:49;;;;;;;1.52;1.40;;;20.70;80.40;;;;;;6211370;23;20043;-66
2022/09/10 12:38:42;;;;;;;2.15;1.48;;;20.70;80.60;;;;;;6211818;23;20000;-66
2022/09/10 12:41:23;;;;;;;1.52;1.42;;;20.70;80.70;;;;;;6212069;23;20001;-67
2022/09/10 12:43:48;;;;;;;1.55;1.45;;;20.60;80.50;;;;;;6214248;23;20035;-66
2022/09/10 12:46:15;;;;;;;1.60;1.50;;;20.60;80.60;;;;;;6211727;23;20001;-66
2022/09/10 12:48:43;;;;;;;1.60;1.50;;;20.70;80.50;;;;;;6212452;23;20071;-68
2022/09/10 12:51:18;;;;;;;1.60;1.50;;;20.80;80.40;;;;;;6213626;23;20005;-67
2022/09/10 12:53:55;;;;;;;2.30;2.10;;;21.00;80.30;;;;;;6212470;23;20036;-66
2022/09/10 12:56:23;;;;;;;2.22;1.95;;;21.20;79.60;;;;;;6211640;23;20004;-66
2022/09/10 12:59:20;;;;;;;3.58;2.75;;;21.20;79.20;;;;;;6211948;23;20334;-66
2022/09/10 13:01:47;;;;;;;2.30;2.10;;;21.00;78.40;;;;;;6210523;23;20039;-67
2022/09/10 13:04:35;;;;;;;1.85;1.70;;;21.00;78.70;;;;;;6211799;23;20529;-67
2022/09/10 13:07:22;;;;;;;1.80;1.70;;;21.10;78.70;;;;;;6211391;23;20070;-66